createdAt,value
2023-05-09T00:01:26.858Z,9.15
2023-05-09T00:06:30.754Z,9.09
2023-05-09T00:11:32.846Z,9.00
2023-05-09T00:16:34.873Z,8.92
2023-05-09T00:21:38.422Z,8.84
2023-05-09T00:26:40.207Z,8.78
2023-05-09T00:31:42.385Z,8.71
2023-05-09T00:36:45.977Z,8.62
2023-05-09T00:41:48.086Z,8.59
2023-05-09T00:46:50.346Z,8.52
2023-05-09T00:51:54.834Z,8.51
2023-05-09T00:56:57.085Z,8.46
2023-05-09T01:01:59.202Z,8.57
2023-05-09T01:07:10.260Z,8.47
2023-05-09T01:12:19.526Z,8.49
2023-05-09T01:17:30.711Z,8.54
2023-05-09T01:22:36.622Z,8.50
2023-05-09T01:27:48.776Z,8.55
2023-05-09T01:32:56.795Z,8.56
2023-05-09T01:37:59.863Z,8.52
2023-05-09T01:43:06.268Z,8.48
2023-05-09T01:48:11.326Z,8.44
2023-05-09T01:53:15.484Z,8.60
2023-05-09T01:58:20.460Z,8.54
2023-05-09T02:03:25.031Z,8.46
2023-05-09T02:08:27.824Z,8.52
2023-05-09T02:13:29.972Z,8.45
2023-05-09T02:18:33.422Z,8.35
2023-05-09T02:23:35.821Z,8.27
2023-05-09T02:28:39.915Z,8.26
2023-05-09T02:33:44.178Z,8.16
2023-05-09T02:38:46.792Z,8.10
2023-05-09T02:43:48.904Z,8.02
2023-05-09T02:48:52.367Z,7.91
2023-05-09T02:53:54.551Z,7.83
2023-05-09T02:58:56.418Z,7.70
2023-05-09T03:03:59.867Z,7.59
2023-05-09T03:09:01.673Z,7.45
2023-05-09T03:14:04.037Z,7.35
2023-05-09T03:19:07.997Z,7.31
2023-05-09T03:24:10.861Z,7.29
2023-05-09T03:29:12.814Z,7.13
2023-05-09T03:34:16.373Z,7.10
2023-05-09T03:39:18.449Z,7.00
2023-05-09T03:44:20.636Z,6.96
2023-05-09T03:49:24.247Z,6.89
2023-05-09T03:54:26.694Z,6.98
2023-05-09T03:59:28.814Z,6.99
2023-05-09T04:04:32.736Z,7.04
2023-05-09T04:09:34.970Z,7.10
2023-05-09T04:14:36.699Z,7.18
2023-05-09T04:19:40.228Z,7.28
2023-05-09T04:24:42.410Z,7.40
2023-05-09T04:29:44.608Z,7.60
2023-05-09T04:34:48.075Z,8.31
2023-05-09T04:39:49.755Z,9.80
2023-05-09T04:44:51.856Z,10.64
2023-05-09T04:49:54.954Z,11.87
2023-05-09T04:54:57.405Z,12.27
2023-05-09T04:59:59.430Z,11.99
2023-05-09T05:05:11.661Z,12.18
2023-05-09T05:10:14.732Z,12.66
2023-05-09T05:15:16.986Z,12.64
2023-05-09T05:20:20.366Z,12.94
2023-05-09T05:25:22.081Z,13.15
2023-05-09T05:30:24.486Z,14.28
2023-05-09T05:35:28.040Z,13.43
2023-05-09T05:40:30.243Z,12.88
2023-05-09T05:45:32.148Z,13.84
2023-05-09T05:50:35.697Z,14.84
2023-05-09T05:55:37.871Z,14.39
2023-05-09T06:00:40.115Z,14.32
2023-05-09T06:05:44.693Z,14.45
2023-05-09T06:10:47.391Z,15.29
2023-05-09T06:15:49.202Z,14.52
2023-05-09T06:20:52.760Z,15.16
2023-05-09T06:25:54.708Z,15.47
2023-05-09T06:30:56.526Z,15.05
2023-05-09T06:36:00.902Z,16.00
2023-05-09T06:41:03.138Z,16.68
2023-05-09T06:46:05.534Z,17.93
2023-05-09T06:51:09.139Z,16.46
2023-05-09T06:56:11.974Z,17.12
2023-05-09T07:01:14.207Z,16.07
2023-05-09T07:06:17.876Z,16.46
2023-05-09T07:11:19.638Z,16.96
2023-05-09T07:16:21.430Z,15.96
2023-05-09T07:21:24.591Z,16.64
2023-05-09T07:26:26.397Z,16.68
2023-05-09T07:31:28.942Z,16.25
2023-05-09T07:36:34.185Z,16.81
2023-05-09T07:41:37.254Z,17.72
2023-05-09T07:46:39.401Z,18.53
2023-05-09T07:51:42.886Z,17.86
2023-05-09T07:56:45.142Z,18.57
2023-05-09T08:01:46.902Z,18.51
2023-05-09T08:06:50.428Z,19.00
2023-05-09T08:11:52.278Z,19.49
2023-05-09T08:16:54.218Z,19.01
2023-05-09T08:21:57.769Z,18.91
2023-05-09T08:26:59.937Z,19.29
2023-05-09T08:32:02.050Z,19.23
2023-05-09T08:37:05.166Z,19.29
2023-05-09T08:42:09.843Z,20.13
2023-05-09T08:47:12.631Z,21.15
2023-05-09T08:52:17.088Z,21.82
2023-05-09T08:57:19.688Z,21.92
2023-05-09T09:02:21.984Z,21.57
2023-05-09T09:07:28.875Z,21.31
2023-05-09T09:12:33.937Z,21.62
2023-05-09T09:17:40.903Z,23.44
2023-05-09T09:22:48.124Z,24.08
2023-05-09T09:27:50.229Z,22.26
2023-05-09T09:32:52.463Z,24.98
2023-05-09T09:38:00.096Z,24.94
2023-05-09T09:43:06.359Z,24.31
2023-05-09T09:48:08.308Z,23.63
2023-05-09T09:53:11.887Z,25.00
2023-05-09T09:58:18.087Z,25.23
2023-05-09T10:03:20.709Z,23.81
2023-05-09T10:08:24.046Z,25.22
2023-05-09T10:13:26.680Z,23.38
2023-05-09T10:18:30.252Z,23.90
2023-05-09T10:23:38.253Z,24.78
2023-05-09T10:28:45.401Z,25.00
2023-05-09T10:33:49.377Z,24.84
2023-05-09T10:38:55.022Z,24.70
2023-05-09T10:43:59.019Z,21.65
2023-05-09T10:49:01.493Z,21.98
2023-05-09T10:54:14.099Z,22.32
2023-05-09T10:59:40.370Z,21.49
2023-05-09T11:04:42.675Z,20.20
2023-05-09T11:09:51.614Z,20.24
2023-05-09T11:14:54.179Z,21.60
2023-05-09T11:20:05.742Z,21.31
2023-05-09T11:25:11.745Z,20.85
2023-05-09T11:30:15.820Z,21.10
2023-05-09T11:35:19.471Z,20.87
2023-05-09T11:40:24.544Z,20.19
2023-05-09T11:45:28.515Z,20.37
2023-05-09T11:50:30.783Z,20.77
2023-05-09T11:55:38.328Z,20.94
2023-05-09T12:00:44.782Z,21.30
2023-05-09T12:05:48.699Z,21.30
2023-05-09T12:10:52.143Z,21.33
2023-05-09T12:16:00.790Z,20.27
2023-05-09T12:21:03.070Z,20.97
2023-05-09T12:26:06.868Z,21.98
2023-05-09T12:31:10.220Z,20.77
2023-05-09T12:36:13.643Z,21.25
2023-05-09T12:41:33.344Z,21.27
2023-05-09T12:46:39.045Z,20.67
2023-05-09T12:51:48.197Z,20.85
2023-05-09T12:56:52.488Z,21.05
2023-05-09T13:01:57.039Z,21.26
2023-05-09T13:06:59.204Z,21.09
2023-05-09T13:12:03.614Z,21.65
2023-05-09T13:17:05.816Z,21.55
2023-05-09T13:22:08.682Z,21.23
2023-05-09T13:27:13.735Z,21.36
2023-05-09T13:32:16.288Z,21.63
2023-05-09T13:37:18.696Z,22.23
2023-05-09T13:42:21.881Z,21.84
2023-05-09T13:47:24.542Z,21.36
2023-05-09T13:52:26.749Z,21.57
2023-05-09T13:57:29.965Z,21.28
2023-05-09T14:02:32.369Z,21.79
2023-05-09T14:07:34.353Z,21.88
2023-05-09T14:12:38.044Z,22.40
2023-05-09T14:17:40.143Z,21.85
2023-05-09T14:22:42.773Z,21.97
2023-05-09T14:27:46.136Z,22.19
2023-05-09T14:32:48.407Z,22.31
2023-05-09T14:37:50.302Z,22.35
2023-05-09T14:42:53.398Z,22.13
2023-05-09T14:47:55.807Z,22.34
2023-05-09T14:52:58.033Z,22.06
2023-05-09T14:58:01.155Z,22.13
2023-05-09T15:03:03.417Z,22.27
2023-05-09T15:08:05.439Z,21.88
2023-05-09T15:13:09.005Z,21.85
2023-05-09T15:18:11.308Z,21.83
2023-05-09T15:23:13.505Z,21.86
2023-05-09T15:28:17.350Z,21.97
2023-05-09T15:33:19.314Z,22.70
2023-05-09T15:38:21.398Z,21.99
2023-05-09T15:43:24.481Z,22.35
2023-05-09T15:48:26.986Z,21.88
2023-05-09T15:53:28.733Z,21.55
2023-05-09T15:58:32.378Z,21.94
2023-05-09T16:03:35.056Z,21.73
2023-05-09T16:08:37.129Z,21.43
2023-05-09T16:13:40.496Z,21.70
2023-05-09T16:18:42.837Z,21.76
2023-05-09T16:23:44.725Z,21.20
2023-05-09T16:28:48.506Z,21.03
2023-05-09T16:33:50.242Z,21.42
2023-05-09T16:38:52.410Z,20.80
2023-05-09T16:43:55.551Z,20.95
2023-05-09T16:48:57.373Z,20.77
2023-05-09T16:53:59.508Z,20.97
2023-05-09T16:59:03.388Z,21.07
2023-05-09T17:04:05.607Z,20.95
2023-05-09T17:09:07.814Z,20.74
2023-05-09T17:14:10.892Z,20.40
2023-05-09T17:19:13.078Z,20.06
2023-05-09T17:24:15.556Z,19.89
2023-05-09T17:29:19.290Z,19.58
2023-05-09T17:34:21.090Z,19.17
2023-05-09T17:39:23.214Z,19.11
2023-05-09T17:44:27.008Z,18.80
2023-05-09T17:49:28.738Z,18.61
2023-05-09T17:54:31.364Z,18.45
2023-05-09T17:59:34.711Z,18.24
2023-05-09T18:04:36.643Z,18.01
2023-05-09T18:09:38.702Z,17.78
2023-05-09T18:14:42.116Z,17.47
2023-05-09T18:19:44.192Z,17.24
2023-05-09T18:24:46.225Z,17.16
2023-05-09T18:29:49.445Z,16.90
2023-05-09T18:34:51.753Z,16.82
2023-05-09T18:39:54.280Z,16.74
2023-05-09T18:44:57.463Z,16.54
2023-05-09T18:50:02.673Z,16.37
2023-05-09T18:55:05.820Z,16.24
2023-05-09T19:00:11.029Z,16.10
2023-05-09T19:05:13.592Z,15.99
2023-05-09T19:10:16.705Z,15.76
2023-05-09T19:15:20.754Z,15.64
2023-05-09T19:20:23.760Z,15.56
2023-05-09T19:25:26.731Z,15.48
2023-05-09T19:30:31.379Z,15.42
2023-05-09T19:35:33.878Z,15.40
2023-05-09T19:40:36.678Z,15.33
2023-05-09T19:45:40.918Z,15.32
2023-05-09T19:50:43.269Z,15.23
2023-05-09T19:55:46.100Z,15.11
2023-05-09T20:00:49.970Z,15.08
2023-05-09T20:05:52.885Z,14.96
2023-05-09T20:10:55.631Z,14.93
2023-05-09T20:16:00.501Z,14.80
2023-05-09T20:21:03.808Z,14.67
2023-05-09T20:26:06.415Z,14.61
2023-05-09T20:31:10.583Z,14.50
2023-05-09T20:36:13.229Z,14.43
2023-05-09T20:41:16.017Z,14.34
2023-05-09T20:46:19.364Z,14.25
2023-05-09T20:51:21.296Z,14.27
2023-05-09T20:56:23.629Z,14.16
2023-05-09T21:01:26.903Z,14.05
2023-05-09T21:06:28.933Z,14.00
2023-05-09T21:11:30.656Z,13.96
2023-05-09T21:16:33.862Z,13.84
2023-05-09T21:21:35.680Z,13.75
2023-05-09T21:26:37.493Z,13.70
2023-05-09T21:31:41.249Z,13.58
2023-05-09T21:36:43.526Z,13.52
2023-05-09T21:41:45.634Z,13.46
2023-05-09T21:46:48.911Z,13.41
2023-05-09T21:51:51.104Z,13.32
2023-05-09T21:56:53.321Z,13.21
2023-05-09T22:01:56.612Z,13.14
2023-05-09T22:06:58.824Z,13.07
2023-05-09T22:12:01.027Z,13.04
2023-05-09T22:17:04.873Z,12.91
2023-05-09T22:22:06.849Z,12.84
2023-05-09T22:27:09.595Z,12.66
2023-05-09T22:32:13.003Z,12.56
2023-05-09T22:37:15.484Z,12.47
2023-05-09T22:42:17.647Z,12.39
2023-05-09T22:47:20.868Z,12.30
2023-05-09T22:52:23.088Z,12.22
2023-05-09T22:57:25.431Z,12.25
2023-05-09T23:02:29.540Z,12.20
2023-05-09T23:07:32.055Z,12.15
2023-05-09T23:12:34.337Z,12.12
2023-05-09T23:17:37.451Z,11.96
2023-05-09T23:22:39.777Z,11.87
2023-05-09T23:27:42.108Z,11.82
2023-05-09T23:32:45.253Z,11.83
2023-05-09T23:37:46.974Z,11.73
2023-05-09T23:42:49.421Z,11.68
2023-05-09T23:47:52.940Z,11.72
2023-05-09T23:52:55.163Z,11.64
2023-05-09T23:57:57.278Z,11.54
